Terminal Aerodrome Forecast
Issued by NWS Wakefield, VA

Home | Current Version | Previous Version | Text Only | Print | Product List | Glossary On
Versions: 1 2 3 4 5 6 7 8 9 10 11 12 13 14 15 16 17 18
909
FTUS41 KAKQ 161534 AAA
TAFRIC
TAF AMD
KRIC 161534Z 1616/1712 20004KT P6SM OVC040
      TEMPO 1616/1619 BKN025 OVC040=

USA.gov is the U.S. government's official web portal to all federal, state and local government web resources and services.